This is the latest recevied weather packets stored in our database for station/object LKCS. If no packets are shown the sender has not sent any weather packets the latest 10 day(s).
| Time | Temp. | Humidity | Pressure | Rain* | Wind** | Luminosity | Snow |
|---|---|---|---|---|---|---|---|
| 1788150786 | 63° F | 88% | 760.6 mmHg | - | - | - | - |
| 1788148962 | 63° F | 88% | 761.3 mmHg | - | - | - | - |
| 1788147158 | 63° F | 88% | 761.3 mmHg | - | - | - | - |
| 1788145387 | 63° F | 88% | 761.3 mmHg | - | - | - | - |
| 1788143550 | 64° F | 82% | 761.3 mmHg | - | - | - | - |
| 1788141764 | 63° F | 88% | 761.3 mmHg | - | - | - | - |
| 1788139985 | 63° F | 88% | 762.1 mmHg | - | - | - | - |
| 1788138185 | 63° F | 88% | 762.1 mmHg | - | - | - | - |
| 1788136385 | 63° F | 88% | 762.1 mmHg | - | - | - | - |
| 1788134586 | 63° F | 82% | 762.1 mmHg | - | - | - | - |
| 1788132751 | 64° F | 77% | 762.1 mmHg | - | - | - | - |
| 1788130987 | 64° F | 77% | 762.1 mmHg | - | - | - | - |
| 1788129186 | 64° F | 77% | 762.1 mmHg | - | - | - | - |
| 1788127386 | 64° F | 82% | 762.1 mmHg | - | - | - | - |
| 1788125551 | 64° F | 77% | 762.1 mmHg | - | - | - | - |
| 1788123786 | 66° F | 72% | 762.1 mmHg | - | - | - | - |
| 1788121951 | 66° F | 72% | 762.1 mmHg | - | - | - | - |
| 1788120167 | 66° F | 72% | 762.1 mmHg | - | - | - | - |
| 1788118385 | 68° F | 68% | 762.1 mmHg | - | - | - | - |
| 1788116594 | 70° F | 64% | 762.1 mmHg | - | - | - | - |
| 1788114758 | 70° F | 64% | 762.1 mmHg | - | - | - | - |
| 1788112960 | 73° F | 56% | 762.1 mmHg | - | - | - | - |
| 1788111185 | 73° F | 56% | 761.3 mmHg | - | - | - | - |
| 1788109395 | 77° F | 50% | 761.3 mmHg | - | - | - | - |
| 1788107558 | 79° F | 47% | 761.3 mmHg | - | - | - | - |
* Rain since midnight (hover to see other rain measurements)
** Current wind speed in m/s (hover to see current wind gust speed)